Time;durP1;ratioP1;P1;durP2;ratioP2;P2;SDS_P1;SDS_P2;PMS_P1;PMS_P2;Temp;Humidity;BMP_temperature;BMP_pressure;BME280_temperature;BME280_humidity;BME280_pressure;Samples;Min_cycle;Max_cycle;Signal;HPM_P1;HPM_P2
2023/10/16 00:03:49;;;;;;;2.83;1.63;;;11.50;92.90;;;;;;10005836;28;20030;-77
2023/10/16 00:08:47;;;;;;;1.52;1.00;;;11.40;93.10;;;;;;10016582;28;20037;-77
2023/10/16 00:13:39;;;;;;;2.92;1.20;;;11.30;93.30;;;;;;10014187;28;20161;-77
2023/10/16 00:18:34;;;;;;;3.67;1.38;;;11.20;93.50;;;;;;10017846;28;20019;-77
2023/10/16 00:23:25;;;;;;;2.45;1.52;;;11.10;93.70;;;;;;10014030;28;20041;-77
2023/10/16 00:28:20;;;;;;;2.00;1.30;;;10.90;93.90;;;;;;10022697;28;20076;-77
2023/10/16 00:33:11;;;;;;;2.38;1.65;;;10.80;94.20;;;;;;10022275;28;20049;-77
2023/10/16 00:38:03;;;;;;;2.95;1.30;;;10.90;94.10;;;;;;9996800;28;20041;-76
2023/10/16 00:42:54;;;;;;;3.33;1.63;;;10.90;94.10;;;;;;10022252;28;20116;-77
2023/10/16 00:47:45;;;;;;;2.85;2.13;;;10.90;94.20;;;;;;10021762;28;20584;-77
2023/10/16 00:52:35;;;;;;;2.53;1.48;;;10.80;94.30;;;;;;10019478;28;20496;-77
2023/10/16 00:57:27;;;;;;;2.15;1.58;;;10.80;94.50;;;;;;10027204;28;20499;-77
2023/10/16 01:02:26;;;;;;;1.83;1.10;;;10.60;94.70;;;;;;10026311;28;20065;-77
2023/10/16 01:07:19;;;;;;;6.35;1.85;;;10.50;95.00;;;;;;10007401;28;20258;-77
2023/10/16 01:12:12;;;;;;;2.65;1.20;;;10.50;94.90;;;;;;10025217;28;20045;-77
2023/10/16 01:17:08;;;;;;;3.67;1.83;;;10.50;95.10;;;;;;10022856;28;20063;-77
2023/10/16 01:21:59;;;;;;;3.28;1.45;;;10.50;95.20;;;;;;10008648;28;20089;-77
2023/10/16 01:26:49;;;;;;;1.48;1.02;;;10.40;95.30;;;;;;10023070;28;20031;-78
2023/10/16 01:31:43;;;;;;;3.80;1.13;;;10.40;95.20;;;;;;10014460;28;20049;-76
2023/10/16 01:36:36;;;;;;;2.92;1.48;;;10.40;95.30;;;;;;10019917;28;20049;-76
2023/10/16 01:41:26;;;;;;;6.40;1.70;;;10.20;95.50;;;;;;10020158;28;20365;-76
2023/10/16 01:46:18;;;;;;;3.10;1.25;;;10.20;95.60;;;;;;10018851;28;20036;-75
2023/10/16 01:51:09;;;;;;;2.85;1.40;;;10.20;95.70;;;;;;10020627;28;20348;-76
2023/10/16 01:56:12;;;;;;;3.35;1.25;;;10.10;95.80;;;;;;10020714;28;20018;-75
2023/10/16 02:01:03;;;;;;;3.38;1.30;;;10.20;95.80;;;;;;10013213;28;20447;-78
2023/10/16 02:05:55;;;;;;;3.20;1.38;;;10.20;95.80;;;;;;10006645;28;20018;-76
2023/10/16 02:10:46;;;;;;;2.35;1.17;;;10.10;95.90;;;;;;10019538;28;20033;-76
2023/10/16 02:15:37;;;;;;;1.98;1.50;;;10.10;95.90;;;;;;10014448;28;20091;-76
2023/10/16 02:20:31;;;;;;;1.30;0.95;;;10.10;96.00;;;;;;10016863;28;20046;-75
2023/10/16 02:25:23;;;;;;;1.92;1.40;;;10.10;96.00;;;;;;10019642;28;20029;-77
2023/10/16 02:30:49;;;;;;;2.88;1.05;;;10.00;96.00;;;;;;10001905;28;20417;-76
2023/10/16 02:35:31;;;;;;;2.60;1.13;;;10.00;96.20;;;;;;10006592;28;20026;-77
2023/10/16 02:40:25;;;;;;;4.47;1.58;;;9.90;96.30;;;;;;9999061;28;20484;-77
2023/10/16 02:45:24;;;;;;;2.53;1.27;;;9.70;96.50;;;;;;10009850;28;20026;-77
2023/10/16 02:50:15;;;;;;;1.38;1.10;;;9.70;96.50;;;;;;10013755;28;20060;-76
2023/10/16 02:55:06;;;;;;;1.48;1.35;;;9.70;96.80;;;;;;10018507;28;20559;-77
2023/10/16 02:59:57;;;;;;;2.20;1.35;;;9.60;96.60;;;;;;10012783;28;20014;-77
2023/10/16 03:04:51;;;;;;;3.25;1.05;;;9.50;96.70;;;;;;10000461;28;20088;-77
2023/10/16 03:09:43;;;;;;;1.45;1.15;;;9.50;96.70;;;;;;10007643;28;20041;-77
2023/10/16 03:14:49;;;;;;;1.73;1.10;;;9.60;96.60;;;;;;10009379;28;20030;-77
2023/10/16 03:19:39;;;;;;;2.17;1.23;;;9.50;96.80;;;;;;10005888;28;20129;-77
2023/10/16 03:24:34;;;;;;;2.80;1.00;;;9.60;96.70;;;;;;9993891;28;20599;-77
2023/10/16 03:29:25;;;;;;;1.83;1.15;;;9.60;96.70;;;;;;10017523;28;20064;-77
2023/10/16 03:34:15;;;;;;;3.35;1.40;;;9.60;96.80;;;;;;10017396;28;21207;-77
2023/10/16 03:39:08;;;;;;;2.58;1.33;;;9.40;96.90;;;;;;9990205;28;20097;-77
2023/10/16 03:44:06;;;;;;;1.17;1.00;;;9.40;96.90;;;;;;9991815;28;20033;-76
2023/10/16 03:48:57;;;;;;;5.13;1.27;;;9.30;97.00;;;;;;10017231;28;20026;-77
2023/10/16 03:53:51;;;;;;;2.05;1.20;;;9.30;97.10;;;;;;10003511;28;20060;-78
2023/10/16 03:58:42;;;;;;;1.92;0.82;;;9.10;97.30;;;;;;10024192;28;20105;-77
2023/10/16 04:03:46;;;;;;;1.42;0.98;;;9.10;97.30;;;;;;10018125;28;20513;-76
2023/10/16 04:08:36;;;;;;;3.13;1.00;;;9.10;97.30;;;;;;10013817;28;20113;-76
2023/10/16 04:13:27;;;;;;;2.20;1.08;;;9.00;97.40;;;;;;10023428;28;20133;-77
2023/10/16 04:19:28;;;;;;;2.00;1.20;;;9.00;97.50;;;;;;10023169;28;20037;-76
2023/10/16 04:29:20;;;;;;;2.05;1.58;;;9.00;97.50;;;;;;10039167;23;20111;-70
2023/10/16 04:33:53;;;;;;;1.98;1.30;;;9.00;97.50;;;;;;10059122;28;20128;-72
2023/10/16 04:38:53;;;;;;;1.63;1.52;;;8.90;97.60;;;;;;10060495;28;20141;-71
2023/10/16 04:48:54;;;;;;;2.17;1.30;;;8.70;97.90;;;;;;10061441;28;20088;-72
2023/10/16 04:54:13;;;;;;;2.58;1.15;;;8.70;97.90;;;;;;10061177;28;20467;-71
2023/10/16 04:59:12;;;;;;;13.77;6.20;;;8.70;97.90;;;;;;10061488;28;20045;-71
2023/10/16 05:04:48;;;;;;;2.70;1.23;;;8.70;97.90;;;;;;10037827;28;20143;-71
2023/10/16 06:15:58;;;;;;;3.47;1.73;;;8.40;98.70;;;;;;10061411;28;20091;-71
2023/10/16 06:20:52;;;;;;;3.58;1.70;;;8.20;98.90;;;;;;10053022;28;20075;-71
2023/10/16 06:25:47;;;;;;;3.22;1.85;;;8.20;98.90;;;;;;10056297;28;20391;-71
2023/10/16 06:30:38;;;;;;;1.63;1.30;;;8.20;99.00;;;;;;10049054;28;20068;-71
2023/10/16 06:35:28;;;;;;;3.90;1.50;;;8.20;99.10;;;;;;10055649;28;20032;-70
2023/10/16 06:40:24;;;;;;;1.77;1.50;;;8.30;99.00;;;;;;10047035;28;20030;-71
2023/10/16 06:45:40;;;;;;;2.40;1.77;;;8.30;98.90;;;;;;10024152;28;20037;-71
2023/10/16 06:50:45;;;;;;;3.15;1.77;;;8.20;99.00;;;;;;10055516;28;20494;-69
2023/10/16 06:55:36;;;;;;;3.50;2.10;;;8.20;99.20;;;;;;10056093;28;20120;-69
2023/10/16 07:00:27;;;;;;;3.80;2.33;;;8.20;99.30;;;;;;10054908;28;20128;-70
2023/10/16 07:05:22;;;;;;;2.88;1.73;;;8.20;99.30;;;;;;10050044;28;20398;-70
2023/10/16 07:10:13;;;;;;;3.57;1.93;;;8.10;99.50;;;;;;10046948;28;20064;-70
2023/10/16 07:15:08;;;;;;;3.25;2.08;;;8.20;99.30;;;;;;10055514;28;20269;-70
2023/10/16 07:19:59;;;;;;;1.77;1.53;;;8.30;99.30;;;;;;10052473;28;20048;-72
2023/10/16 07:24:49;;;;;;;3.63;2.20;;;8.20;99.40;;;;;;10038599;28;20037;-71
2023/10/16 07:29:43;;;;;;;3.15;2.03;;;8.00;99.60;;;;;;10053235;28;20064;-72
2023/10/16 07:34:37;;;;;;;2.30;1.60;;;8.10;99.60;;;;;;10062913;28;20030;-69
2023/10/16 07:39:28;;;;;;;2.25;1.98;;;8.10;99.70;;;;;;10062666;28;20021;-68
2023/10/16 07:44:19;;;;;;;2.92;2.28;;;8.00;99.90;;;;;;10058231;28;20025;-69
2023/10/16 07:49:09;;;;;;;2.78;2.05;;;8.10;99.80;;;;;;10062285;28;20483;-70
2023/10/16 07:54:00;;;;;;;3.28;1.95;;;8.40;99.40;;;;;;10058946;28;20129;-70
2023/10/16 07:59:09;;;;;;;2.60;2.33;;;8.30;99.60;;;;;;10035968;28;20129;-70
2023/10/16 08:03:59;;;;;;;2.25;1.67;;;8.40;99.80;;;;;;10052096;28;20029;-70
2023/10/16 08:09:29;;;;;;;2.17;1.73;;;8.40;99.70;;;;;;10062349;28;20044;-69
2023/10/16 08:14:06;;;;;;;3.25;1.73;;;8.50;99.70;;;;;;10057196;28;20507;-69
2023/10/16 08:18:57;;;;;;;2.30;1.87;;;8.60;99.60;;;;;;10056043;28;20034;-69
2023/10/16 08:23:48;;;;;;;2.20;1.67;;;8.70;99.70;;;;;;10056309;28;20033;-68
2023/10/16 08:28:44;;;;;;;3.50;2.15;;;8.90;99.50;;;;;;10056012;28;20570;-69
2023/10/16 08:33:35;;;;;;;3.25;1.55;;;9.00;99.40;;;;;;10042783;28;20388;-69
2023/10/16 08:38:26;;;;;;;4.07;1.80;;;9.20;99.30;;;;;;10053398;28;20493;-69
2023/10/16 08:43:17;;;;;;;4.43;1.85;;;9.30;99.20;;;;;;10060246;28;20112;-70
2023/10/16 08:48:08;;;;;;;2.45;1.80;;;9.20;99.40;;;;;;10042906;28;20041;-70
2023/10/16 08:53:05;;;;;;;7.05;2.05;;;9.10;99.60;;;;;;10059543;28;20049;-69
2023/10/16 08:57:56;;;;;;;3.83;1.80;;;9.20;99.60;;;;;;10059522;28;20432;-69
2023/10/16 09:02:53;;;;;;;3.88;1.65;;;9.30;99.60;;;;;;10058375;28;20045;-68
2023/10/16 09:07:44;;;;;;;2.10;1.67;;;9.50;99.50;;;;;;10047408;28;20484;-68
2023/10/16 09:12:45;;;;;;;3.67;1.63;;;9.50;99.70;;;;;;10060426;28;20044;-68
2023/10/16 09:17:39;;;;;;;2.78;1.80;;;9.50;99.80;;;;;;10058124;28;20116;-69
2023/10/16 09:22:29;;;;;;;2.20;1.45;;;9.60;99.50;;;;;;10036700;28;20140;-69
2023/10/16 09:27:29;;;;;;;6.28;2.38;;;9.70;99.60;;;;;;10058841;28;20160;-70
2023/10/16 09:32:28;;;;;;;4.18;1.50;;;9.80;99.50;;;;;;10046436;28;20041;-70
2023/10/16 09:37:34;;;;;;;3.95;2.33;;;9.90;99.50;;;;;;10038393;28;20438;-69
2023/10/16 09:42:25;;;;;;;6.38;2.28;;;10.00;99.30;;;;;;10034169;28;20091;-68
2023/10/16 09:47:25;;;;;;;2.72;2.00;;;10.10;99.30;;;;;;10052883;28;20191;-68
2023/10/16 09:52:20;;;;;;;3.78;2.70;;;10.20;99.20;;;;;;10053702;28;20048;-68
2023/10/16 09:57:16;;;;;;;4.80;1.77;;;10.20;99.20;;;;;;10052373;28;21315;-69
2023/10/16 10:02:16;;;;;;;3.60;2.03;;;10.20;99.30;;;;;;10053314;28;20095;-69
2023/10/16 10:07:14;;;;;;;5.45;2.05;;;10.30;99.30;;;;;;10054574;28;20109;-69
2023/10/16 10:12:28;;;;;;;2.95;1.85;;;10.30;99.30;;;;;;10054078;28;20041;-70
2023/10/16 10:17:20;;;;;;;3.75;1.90;;;10.30;99.20;;;;;;10054040;28;20479;-69
2023/10/16 10:22:18;;;;;;;4.00;1.60;;;10.40;99.20;;;;;;10048858;28;20600;-69
2023/10/16 10:27:11;;;;;;;5.57;1.95;;;10.40;99.20;;;;;;10056311;28;20057;-70
2023/10/16 10:32:13;;;;;;;2.17;1.50;;;10.50;99.20;;;;;;10053179;28;20041;-71
2023/10/16 10:37:41;;;;;;;2.20;1.92;;;10.60;99.10;;;;;;10053641;28;20344;-70
2023/10/16 10:42:38;;;;;;;2.33;1.23;;;10.70;99.10;;;;;;10046260;28;20033;-70
2023/10/16 10:47:33;;;;;;;2.63;1.75;;;10.70;99.00;;;;;;10053542;28;20037;-71
2023/10/16 10:52:26;;;;;;;1.97;1.30;;;10.80;98.80;;;;;;10036628;28;20053;-70
2023/10/16 10:57:24;;;;;;;3.50;1.92;;;10.90;98.70;;;;;;10055525;28;20789;-70
2023/10/16 11:07:12;;;;;;;1.42;0.73;;;11.00;98.40;;;;;;10050443;28;20116;-71
2023/10/16 11:12:03;;;;;;;1.42;1.02;;;11.10;98.30;;;;;;10048219;28;20042;-70
2023/10/16 11:16:54;;;;;;;1.92;1.15;;;11.10;98.20;;;;;;10056023;28;20426;-70
2023/10/16 11:21:47;;;;;;;3.20;1.65;;;11.20;98.20;;;;;;10041375;28;20458;-70
2023/10/16 11:26:38;;;;;;;2.63;1.35;;;11.30;98.20;;;;;;10057772;28;20017;-69
2023/10/16 11:31:29;;;;;;;1.50;1.13;;;11.30;98.00;;;;;;10044499;28;20517;-69
2023/10/16 11:36:23;;;;;;;2.08;1.33;;;11.30;97.90;;;;;;10061271;28;20053;-70
2023/10/16 11:41:17;;;;;;;1.77;1.17;;;11.40;97.90;;;;;;10042740;28;20044;-70
2023/10/16 11:51:18;;;;;;;2.65;1.30;;;11.60;97.70;;;;;;10054063;28;20168;-71
2023/10/16 11:56:12;;;;;;;2.25;1.42;;;11.70;97.50;;;;;;10055937;28;20030;-70
2023/10/16 12:01:09;;;;;;;4.82;1.23;;;11.80;97.50;;;;;;10053886;28;20053;-71
2023/10/16 12:06:00;;;;;;;2.80;0.95;;;11.80;97.40;;;;;;10056327;28;20018;-69
2023/10/16 12:10:50;;;;;;;1.63;1.02;;;12.00;97.20;;;;;;10052105;28;20092;-70
2023/10/16 12:15:43;;;;;;;4.78;1.35;;;12.10;97.00;;;;;;10057148;28;20035;-71
2023/10/16 12:20:34;;;;;;;1.35;0.93;;;12.10;96.90;;;;;;10057698;28;20029;-70
2023/10/16 12:25:28;;;;;;;1.38;1.02;;;12.20;96.90;;;;;;10058069;28;20025;-70
2023/10/16 12:30:19;;;;;;;3.15;1.33;;;12.30;96.90;;;;;;10059878;28;20041;-70
2023/10/16 12:35:11;;;;;;;2.22;1.30;;;12.50;96.80;;;;;;10039662;28;20461;-70
2023/10/16 12:40:24;;;;;;;2.28;0.95;;;12.70;96.70;;;;;;10035260;28;20057;-70
2023/10/16 12:45:14;;;;;;;3.45;1.27;;;12.70;96.60;;;;;;10026799;28;20089;-69
2023/10/16 12:50:07;;;;;;;1.90;1.35;;;12.80;96.50;;;;;;10031083;28;20043;-70
2023/10/16 12:55:00;;;;;;;0.88;0.70;;;13.00;96.50;;;;;;10050141;28;20767;-69
2023/10/16 12:59:51;;;;;;;1.77;1.00;;;13.10;96.40;;;;;;10055974;28;20528;-71
2023/10/16 13:04:42;;;;;;;1.75;0.93;;;13.20;96.30;;;;;;10042383;28;20076;-69
2023/10/16 13:09:33;;;;;;;2.28;0.93;;;13.30;96.10;;;;;;10046189;28;20037;-69
2023/10/16 13:14:25;;;;;;;0.80;0.65;;;13.30;96.00;;;;;;10050009;28;20108;-69
2023/10/16 13:19:15;;;;;;;2.45;1.13;;;13.50;95.80;;;;;;10054548;28;20713;-71
2023/10/16 13:24:16;;;;;;;1.63;1.00;;;13.70;95.80;;;;;;10046972;28;20303;-70
2023/10/16 13:29:09;;;;;;;1.00;0.80;;;13.70;95.70;;;;;;10056858;28;20053;-69
2023/10/16 13:34:02;;;;;;;1.48;0.70;;;13.90;95.50;;;;;;10047197;28;20124;-69
2023/10/16 13:38:53;;;;;;;1.95;0.80;;;14.00;95.50;;;;;;10055533;28;20022;-70
2023/10/16 13:43:44;;;;;;;0.73;0.70;;;14.20;95.30;;;;;;10040210;28;20105;-70
2023/10/16 13:48:36;;;;;;;2.03;1.08;;;14.30;95.00;;;;;;10044407;28;20063;-69
2023/10/16 13:53:27;;;;;;;1.25;0.98;;;14.40;95.00;;;;;;10043327;28;20184;-69
2023/10/16 13:58:19;;;;;;;1.90;1.05;;;14.60;94.80;;;;;;10016407;28;20116;-69
2023/10/16 14:08:14;;;;;;;1.77;1.50;;;14.70;94.70;;;;;;10044125;28;20025;-70
2023/10/16 14:13:18;;;;;;;1.60;0.90;;;14.80;94.40;;;;;;10043802;28;20121;-69
2023/10/16 14:18:14;;;;;;;1.05;0.80;;;14.90;94.50;;;;;;10053739;28;20084;-69
2023/10/16 14:23:11;;;;;;;2.13;0.70;;;15.10;94.20;;;;;;10047113;28;21430;-69
2023/10/16 14:28:44;;;;;;;1.02;0.55;;;15.30;94.10;;;;;;10038043;28;20517;-69
2023/10/16 14:33:15;;;;;;;2.80;1.10;;;15.40;93.90;;;;;;10028162;28;20045;-69
2023/10/16 14:38:06;;;;;;;2.38;0.80;;;15.50;93.80;;;;;;10041628;28;20106;-69
2023/10/16 14:42:58;;;;;;;2.20;0.80;;;15.50;93.70;;;;;;10029374;28;20040;-70
2023/10/16 14:47:50;;;;;;;0.98;0.80;;;15.50;93.50;;;;;;10037806;28;20025;-69
2023/10/16 14:52:40;;;;;;;2.20;0.93;;;15.70;93.50;;;;;;10006970;28;20337;-70
2023/10/16 14:57:32;;;;;;;3.17;0.80;;;15.60;93.20;;;;;;10047173;28;20491;-69
2023/10/16 15:02:22;;;;;;;0.95;0.70;;;15.60;93.30;;;;;;10053236;28;20033;-72
2023/10/16 15:07:15;;;;;;;0.68;0.57;;;15.60;93.00;;;;;;10060044;28;20041;-69
2023/10/16 15:12:07;;;;;;;2.83;1.30;;;15.60;92.90;;;;;;10036056;28;20045;-70
2023/10/16 15:16:57;;;;;;;1.55;0.70;;;15.50;92.80;;;;;;10036566;28;20128;-71
2023/10/16 15:21:48;;;;;;;1.60;0.95;;;15.30;92.80;;;;;;10033050;28;20120;-71
2023/10/16 15:26:39;;;;;;;1.00;0.70;;;15.20;93.00;;;;;;10057200;28;20113;-71
2023/10/16 15:31:30;;;;;;;1.00;0.70;;;15.00;92.90;;;;;;10055120;28;20053;-70
2023/10/16 15:36:21;;;;;;;1.27;0.93;;;14.90;92.90;;;;;;10046890;28;20712;-72
2023/10/16 15:41:15;;;;;;;1.30;0.63;;;14.80;92.90;;;;;;10044837;28;20033;-72
2023/10/16 15:46:23;;;;;;;1.35;0.93;;;14.70;92.90;;;;;;10050289;28;20029;-71
2023/10/16 15:51:14;;;;;;;1.55;0.70;;;14.50;92.90;;;;;;10052670;28;20037;-72
2023/10/16 15:56:05;;;;;;;2.35;1.05;;;14.40;92.90;;;;;;10054521;28;20394;-73
2023/10/16 16:00:57;;;;;;;1.05;0.90;;;14.30;93.00;;;;;;10057807;28;20041;-72
2023/10/16 16:05:48;;;;;;;1.58;1.05;;;14.20;93.00;;;;;;10058336;28;20034;-74
2023/10/16 16:10:39;;;;;;;2.10;1.10;;;14.30;93.10;;;;;;10055824;28;20108;-73
2023/10/16 16:15:30;;;;;;;2.10;1.05;;;14.20;93.20;;;;;;10055668;28;20175;-73
2023/10/16 16:20:21;;;;;;;1.45;0.95;;;14.10;93.20;;;;;;10049441;28;20128;-73
2023/10/16 16:25:12;;;;;;;3.22;1.27;;;14.10;93.30;;;;;;10056301;28;20022;-71
2023/10/16 16:30:04;;;;;;;3.58;1.10;;;14.00;93.30;;;;;;10043555;28;20502;-72
2023/10/16 16:34:55;;;;;;;1.55;1.23;;;13.90;93.40;;;;;;10064351;28;20033;-72
2023/10/16 16:39:45;;;;;;;1.42;1.20;;;13.80;93.40;;;;;;10054020;28;20039;-73
2023/10/16 16:44:38;;;;;;;1.17;1.05;;;13.80;93.50;;;;;;10043466;28;20021;-72
2023/10/16 16:49:29;;;;;;;1.67;1.10;;;13.90;93.50;;;;;;10060349;28;20075;-72
2023/10/16 16:54:21;;;;;;;1.73;1.10;;;13.90;93.40;;;;;;10058646;28;20125;-71
2023/10/16 16:59:12;;;;;;;2.47;1.08;;;13.80;93.50;;;;;;10055061;28;20025;-72
2023/10/16 17:04:03;;;;;;;1.83;1.40;;;13.80;93.40;;;;;;10051307;28;20026;-71
2023/10/16 17:08:55;;;;;;;2.13;1.10;;;13.80;93.40;;;;;;10053614;28;20109;-72
2023/10/16 17:13:46;;;;;;;1.92;0.98;;;13.70;93.30;;;;;;10058413;28;20037;-72
2023/10/16 17:18:37;;;;;;;3.35;1.30;;;13.70;93.40;;;;;;10059563;28;20029;-73
2023/10/16 17:23:27;;;;;;;2.95;1.02;;;13.70;93.50;;;;;;10042594;28;20406;-74
2023/10/16 17:28:18;;;;;;;2.17;1.52;;;13.70;93.50;;;;;;10056797;28;20507;-72
2023/10/16 17:33:08;;;;;;;2.85;1.20;;;13.70;93.60;;;;;;10027291;28;20041;-75
2023/10/16 17:38:00;;;;;;;2.95;1.77;;;13.70;93.70;;;;;;10039837;28;20026;-73
2023/10/16 17:42:51;;;;;;;1.95;1.52;;;13.60;93.70;;;;;;10056062;28;20128;-74
2023/10/16 17:47:43;;;;;;;3.00;1.60;;;13.60;93.70;;;;;;10054939;28;20164;-74
2023/10/16 17:52:34;;;;;;;2.38;1.17;;;13.50;93.80;;;;;;10050025;28;20041;-73
2023/10/16 17:57:25;;;;;;;2.67;1.67;;;13.50;93.90;;;;;;10037039;28;20442;-75
2023/10/16 18:02:16;;;;;;;2.10;1.55;;;13.50;94.00;;;;;;10039064;28;20030;-80
2023/10/16 18:07:06;;;;;;;5.75;1.80;;;13.50;94.00;;;;;;10051716;28;20095;-77
2023/10/16 18:12:03;;;;;;;2.85;1.48;;;13.50;94.00;;;;;;10051272;28;20148;-74
2023/10/16 18:16:59;;;;;;;4.03;1.88;;;13.40;94.10;;;;;;10050492;28;20052;-73
2023/10/16 18:21:49;;;;;;;;;;;13.40;94.10;;;;;;10041711;28;20116;-80
2023/10/16 18:26:40;;;;;;;3.20;1.42;;;13.40;94.20;;;;;;10047916;28;20392;-74
2023/10/16 18:31:36;;;;;;;3.55;1.40;;;13.40;94.20;;;;;;10045800;28;20487;-85
2023/10/16 18:36:28;;;;;;;3.38;1.55;;;13.40;94.20;;;;;;10047834;28;20108;-86
2023/10/16 18:41:19;;;;;;;1.88;1.42;;;13.30;94.10;;;;;;10049670;28;20040;-79
2023/10/16 18:46:15;;;;;;;2.85;1.67;;;13.30;94.20;;;;;;10044076;28;20060;-79
2023/10/16 18:51:06;;;;;;;2.58;1.10;;;13.30;94.20;;;;;;10032566;28;20124;-75
2023/10/16 18:55:57;;;;;;;1.92;0.90;;;13.30;94.20;;;;;;10045856;28;20496;-82
2023/10/16 19:00:48;;;;;;;4.47;2.08;;;13.20;94.20;;;;;;10054285;28;20032;-80
2023/10/16 19:05:39;;;;;;;1.77;1.30;;;13.20;94.20;;;;;;10052039;28;20034;-76
2023/10/16 19:10:30;;;;;;;2.33;1.27;;;13.20;94.20;;;;;;10045713;28;20495;-75
2023/10/16 19:15:21;;;;;;;1.33;1.20;;;13.20;94.20;;;;;;10039199;28;20094;-78
2023/10/16 19:20:13;;;;;;;3.63;1.48;;;13.10;94.20;;;;;;10025138;28;20352;-80
2023/10/16 19:25:07;;;;;;;2.60;1.63;;;13.10;94.20;;;;;;10043919;28;20521;-74
2023/10/16 19:29:58;;;;;;;6.33;1.70;;;13.10;94.30;;;;;;10055853;28;20491;-74
2023/10/16 19:34:51;;;;;;;2.20;1.30;;;13.00;94.30;;;;;;10055833;28;20025;-73
2023/10/16 19:39:43;;;;;;;3.33;2.00;;;13.00;94.30;;;;;;10053184;28;20025;-76
2023/10/16 19:44:35;;;;;;;2.28;1.50;;;13.00;94.30;;;;;;10046666;28;20499;-77
2023/10/16 19:49:27;;;;;;;4.07;1.48;;;12.90;94.30;;;;;;10027327;28;20037;-74
2023/10/16 19:54:19;;;;;;;3.08;1.65;;;12.90;94.30;;;;;;10042283;28;20045;-74
2023/10/16 19:59:11;;;;;;;1.48;1.15;;;12.80;94.40;;;;;;10051734;28;20033;-71
2023/10/16 20:04:02;;;;;;;3.40;1.15;;;12.80;94.40;;;;;;10046646;28;20509;-73
2023/10/16 20:08:52;;;;;;;3.40;1.27;;;12.80;94.40;;;;;;10041749;28;20116;-75
2023/10/16 20:13:43;;;;;;;2.22;1.10;;;12.70;94.50;;;;;;10037834;28;20038;-73
2023/10/16 20:18:34;;;;;;;2.15;1.77;;;12.60;94.50;;;;;;10029666;28;20514;-72
2023/10/16 20:23:25;;;;;;;3.38;1.25;;;12.60;94.50;;;;;;10034961;28;20033;-74
2023/10/16 20:28:18;;;;;;;2.08;1.85;;;12.60;94.50;;;;;;10052181;28;20053;-72
2023/10/16 20:33:11;;;;;;;2.50;1.35;;;12.50;94.60;;;;;;10050698;28;20037;-73
2023/10/16 20:38:03;;;;;;;2.33;1.17;;;12.50;94.60;;;;;;10054552;28;20025;-74
2023/10/16 20:42:56;;;;;;;1.60;1.02;;;12.50;94.70;;;;;;10053515;28;20030;-73
2023/10/16 20:47:48;;;;;;;1.67;1.30;;;12.50;94.80;;;;;;10048172;28;20545;-72
2023/10/16 20:52:38;;;;;;;3.65;1.42;;;12.30;94.80;;;;;;10040261;28;20037;-74
2023/10/16 20:57:29;;;;;;;3.83;1.13;;;12.40;94.90;;;;;;10055993;28;20034;-72
2023/10/16 21:02:20;;;;;;;1.67;1.20;;;12.30;94.90;;;;;;10046713;28;20101;-73
2023/10/16 21:07:10;;;;;;;2.20;1.08;;;12.20;94.90;;;;;;10052369;28;20483;-76
2023/10/16 21:12:01;;;;;;;3.05;1.67;;;12.30;95.00;;;;;;10051578;28;20065;-75
2023/10/16 21:16:51;;;;;;;1.67;1.30;;;12.20;95.10;;;;;;10045622;28;20509;-71
2023/10/16 21:21:42;;;;;;;2.15;1.23;;;12.10;95.10;;;;;;10058725;28;20095;-73
2023/10/16 21:26:33;;;;;;;4.03;1.60;;;12.10;95.20;;;;;;10065585;28;20033;-72
2023/10/16 21:31:23;;;;;;;2.95;2.20;;;12.00;95.20;;;;;;10060009;28;20065;-75
2023/10/16 21:36:14;;;;;;;1.63;1.25;;;11.90;95.30;;;;;;10052132;28;20021;-77
2023/10/16 21:41:05;;;;;;;3.55;1.80;;;11.90;95.30;;;;;;10058409;28;20037;-74
2023/10/16 21:46:04;;;;;;;3.15;1.20;;;11.90;95.30;;;;;;10056897;28;20075;-73
2023/10/16 21:50:55;;;;;;;1.65;1.05;;;11.80;95.30;;;;;;10058310;28;20041;-74
2023/10/16 21:55:45;;;;;;;2.13;1.70;;;11.80;95.40;;;;;;10059046;28;20030;-74
2023/10/16 22:00:41;;;;;;;2.90;1.90;;;11.80;95.50;;;;;;10057593;28;20534;-77
2023/10/16 22:05:32;;;;;;;3.03;1.27;;;11.80;95.60;;;;;;10057640;28;20557;-77
2023/10/16 22:10:23;;;;;;;2.45;1.30;;;11.80;95.70;;;;;;10056191;28;20313;-76
2023/10/16 22:15:14;;;;;;;2.47;1.35;;;11.70;95.80;;;;;;10057164;28;20131;-77
2023/10/16 22:20:08;;;;;;;2.65;1.30;;;11.60;95.90;;;;;;10050058;28;20136;-77
2023/10/16 22:24:59;;;;;;;1.77;1.50;;;11.60;96.00;;;;;;10057508;28;20116;-74
2023/10/16 22:29:50;;;;;;;2.00;1.27;;;11.50;96.10;;;;;;10060281;28;20140;-73
2023/10/16 22:34:43;;;;;;;2.17;1.45;;;11.50;96.20;;;;;;10039035;28;20604;-76
2023/10/16 22:39:34;;;;;;;2.63;1.58;;;11.40;96.30;;;;;;10056903;28;20030;-76
2023/10/16 22:44:25;;;;;;;4.05;1.80;;;11.50;96.30;;;;;;10054658;28;20029;-73
2023/10/16 22:49:17;;;;;;;2.08;1.60;;;11.40;96.40;;;;;;10057032;28;20076;-75
2023/10/16 22:54:07;;;;;;;2.60;1.67;;;11.30;96.60;;;;;;10038445;28;20450;-73
2023/10/16 22:58:58;;;;;;;4.28;1.45;;;11.10;96.70;;;;;;10055385;28;20108;-74
2023/10/16 23:03:49;;;;;;;2.75;1.50;;;11.10;96.80;;;;;;10050268;28;20049;-72
2023/10/16 23:08:40;;;;;;;2.30;1.48;;;11.10;96.80;;;;;;10048393;28;20531;-73
2023/10/16 23:13:32;;;;;;;2.13;1.48;;;11.00;96.90;;;;;;10046721;28;20042;-73
2023/10/16 23:18:23;;;;;;;1.63;1.52;;;10.90;96.90;;;;;;10053112;28;20029;-78
2023/10/16 23:23:14;;;;;;;3.88;1.60;;;10.90;97.00;;;;;;10052176;28;20376;-80
2023/10/16 23:28:05;;;;;;;2.60;1.60;;;10.90;97.00;;;;;;10056588;28;20112;-80
2023/10/16 23:32:55;;;;;;;3.33;1.40;;;10.90;97.00;;;;;;10055363;28;20049;-77
2023/10/16 23:37:46;;;;;;;2.75;1.50;;;10.60;97.20;;;;;;10056676;28;20394;-79
2023/10/16 23:42:37;;;;;;;2.33;1.45;;;10.50;97.40;;;;;;10055780;28;20509;-79
2023/10/16 23:47:28;;;;;;;2.58;1.98;;;10.40;97.40;;;;;;10056739;28;20030;-77
2023/10/16 23:52:22;;;;;;;2.17;1.70;;;10.40;97.40;;;;;;10052923;28;20454;-73
2023/10/16 23:57:22;;;;;;;2.15;1.38;;;10.40;97.40;;;;;;10059054;28;20155;-76
